Time;durP1;ratioP1;P1;durP2;ratioP2;P2;SDS_P1;SDS_P2;PMS_P1;PMS_P2;Temp;Humidity;BMP_temperature;BMP_pressure;BME280_temperature;BME280_humidity;BME280_pressure;Samples;Min_cycle;Max_cycle;Signal;HPM_P1;HPM_P2
2023/06/04 00:00:18;;;;;;;1.95;0.82;;;;;;;18.54;41.86;99819.00;4479406;31;33436;-66
2023/06/04 00:02:46;;;;;;;0.90;0.60;;;;;;;18.49;41.75;99827.63;4479519;32;32453;-65
2023/06/04 00:05:13;;;;;;;4.95;1.25;;;;;;;18.39;42.12;99829.59;4479213;31;33949;-66
2023/06/04 00:07:41;;;;;;;3.55;1.40;;;;;;;18.35;42.37;99823.66;4463801;31;33845;-66
2023/06/04 00:10:09;;;;;;;1.85;1.40;;;;;;;18.37;42.25;99827.06;4479226;32;33133;-66
2023/06/04 00:12:37;;;;;;;2.53;1.00;;;;;;;18.37;42.03;99827.06;4477599;31;33641;-66
2023/06/04 00:15:05;;;;;;;2.00;1.37;;;;;;;18.46;41.63;99824.38;4474636;32;33627;-67
2023/06/04 00:17:33;;;;;;;1.67;1.08;;;;;;;18.51;41.51;99822.03;4478660;31;34694;-66
2023/06/04 00:20:00;;;;;;;1.73;1.35;;;;;;;18.50;41.76;99826.59;4480768;32;32910;-66
2023/06/04 00:22:28;;;;;;;8.05;1.65;;;;;;;18.51;41.61;99819.31;4474234;31;33816;-66
2023/06/04 00:24:55;;;;;;;5.37;1.15;;;;;;;18.52;41.76;99818.28;4479281;32;33833;-69
2023/06/04 00:27:23;;;;;;;2.03;1.23;;;;;;;18.49;41.39;99821.34;4470017;31;33745;-70
2023/06/04 00:29:50;;;;;;;7.80;1.65;;;;;;;18.43;41.47;99817.44;4467911;32;32876;-69
2023/06/04 00:32:18;;;;;;;2.33;1.33;;;;;;;18.51;41.53;99811.19;4477078;31;33362;-69
2023/06/04 00:34:52;;;;;;;2.20;1.65;;;;;;;18.45;41.73;99815.41;4480728;32;33888;-69
2023/06/04 00:37:22;;;;;;;3.58;1.52;;;;;;;18.55;41.60;99804.41;4471886;31;33819;-70
2023/06/04 00:39:50;;;;;;;7.20;1.48;;;;;;;18.55;41.92;99815.25;4480040;31;32956;-69
2023/06/04 00:42:17;;;;;;;2.20;1.27;;;;;;;18.53;42.42;99820.03;4479704;32;34039;-69
2023/06/04 00:44:45;;;;;;;1.83;1.35;;;;;;;18.45;42.66;99818.09;4466922;32;33944;-69
2023/06/04 00:47:17;;;;;;;4.43;1.65;;;;;;;18.31;42.69;99818.75;4472984;31;33703;-69
2023/06/04 00:49:45;;;;;;;3.90;1.60;;;;;;;18.11;43.00;99820.84;4479274;31;34264;-69
2023/06/04 00:52:14;;;;;;;3.10;1.83;;;;;;;18.15;42.61;99822.22;4480850;32;33402;-68
2023/06/04 00:54:42;;;;;;;2.90;1.65;;;;;;;18.14;42.61;99825.94;4480065;31;33790;-67
2023/06/04 00:57:09;;;;;;;2.50;1.37;;;;;;;18.19;42.10;99823.59;4479467;31;33808;-68
2023/06/04 00:59:38;;;;;;;2.90;1.75;;;;;;;18.01;42.68;99817.37;4472525;31;34702;-68
2023/06/04 01:02:09;;;;;;;17.77;2.42;;;;;;;17.98;42.64;99817.69;4479599;32;33372;-67
2023/06/04 01:05:09;;;;;;;2.10;1.15;;;;;;;17.84;43.02;99820.00;4479381;32;33722;-67
2023/06/04 01:07:40;;;;;;;3.60;0.82;;;;;;;17.78;43.46;99814.38;4475415;31;32791;-66
2023/06/04 01:10:07;;;;;;;4.03;1.70;;;;;;;17.95;43.13;99815.34;4479270;32;33967;-67
2023/06/04 01:12:39;;;;;;;1.55;1.08;;;;;;;18.04;43.19;99807.09;4480391;31;33967;-68
2023/06/04 01:15:08;;;;;;;5.20;1.25;;;;;;;17.80;43.33;99801.53;4479357;32;34074;-66
2023/06/04 01:17:43;;;;;;;1.17;0.93;;;;;;;17.89;42.69;99804.13;4481386;31;35373;-67
2023/06/04 01:20:12;;;;;;;2.70;1.55;;;;;;;18.04;42.13;99806.22;4480986;32;34400;-66
2023/06/04 01:22:54;;;;;;;1.10;1.02;;;;;;;18.12;41.38;99820.69;4481787;31;33640;-66
2023/06/04 01:25:49;;;;;;;2.45;0.98;;;;;;;18.14;40.45;99815.12;4474347;32;33910;-67
2023/06/04 01:28:20;;;;;;;2.70;1.50;;;;;;;18.20;41.74;99814.44;4476822;31;33765;-66
2023/06/04 01:30:50;;;;;;;1.70;0.88;;;;;;;18.28;40.46;99814.50;4480545;31;32938;-66
2023/06/04 01:33:19;;;;;;;2.37;1.10;;;;;;;18.24;40.63;99821.25;4480888;31;33796;-67
2023/06/04 01:35:46;;;;;;;1.33;0.88;;;;;;;18.18;41.46;99821.91;4480527;32;33994;-66
2023/06/04 01:38:14;;;;;;;2.08;0.93;;;;;;;18.20;41.19;99825.28;4479365;31;33534;-67
2023/06/04 01:40:42;;;;;;;2.15;1.20;;;;;;;18.13;41.22;99826.94;4480581;32;32078;-65
2023/06/04 01:43:09;;;;;;;2.00;0.82;;;;;;;18.01;41.84;99825.50;4481101;31;33663;-66
2023/06/04 01:45:37;;;;;;;1.58;1.12;;;;;;;18.06;41.67;99818.59;4478368;32;33662;-67
2023/06/04 01:48:05;;;;;;;2.50;0.93;;;;;;;17.95;42.01;99816.19;4479059;31;33337;-66
2023/06/04 01:50:33;;;;;;;3.83;1.77;;;;;;;18.02;41.87;99825.37;4481023;31;33176;-66
2023/06/04 01:53:01;;;;;;;1.60;1.10;;;;;;;18.01;41.57;99814.69;4479440;31;31791;-66
2023/06/04 01:55:33;;;;;;;2.50;1.10;;;;;;;18.24;41.09;99815.84;4480373;31;33908;-67
2023/06/04 01:58:01;;;;;;;2.35;1.17;;;;;;;18.29;41.55;99807.22;4475359;31;33961;-66
2023/06/04 02:00:29;;;;;;;2.72;1.02;;;;;;;18.37;40.97;99807.25;4481241;31;34325;-68
2023/06/04 02:02:57;;;;;;;2.50;1.05;;;;;;;18.38;40.69;99812.50;4478788;31;32545;-68
2023/06/04 02:05:25;;;;;;;1.45;1.00;;;;;;;18.45;40.81;99817.25;4479259;31;33080;-67
2023/06/04 02:07:52;;;;;;;4.18;1.50;;;;;;;18.46;41.70;99810.81;4471978;31;33640;-68
2023/06/04 02:10:20;;;;;;;2.53;1.25;;;;;;;18.54;41.65;99821.69;4479304;32;32141;-68
2023/06/04 02:12:55;;;;;;;3.00;1.45;;;;;;;18.43;41.14;99822.03;4478735;31;35576;-66
2023/06/04 02:15:25;;;;;;;4.28;1.17;;;;;;;18.39;41.53;99829.59;4478246;32;34098;-65
2023/06/04 02:17:58;;;;;;;1.58;1.10;;;;;;;18.32;42.12;99825.84;4465201;31;34382;-65
2023/06/04 02:20:27;;;;;;;5.10;1.17;;;;;;;18.20;42.50;99827.97;4478994;32;32900;-66
2023/06/04 02:22:55;;;;;;;2.85;1.50;;;;;;;18.18;42.37;99821.91;4480105;31;32712;-66
2023/06/04 02:25:25;;;;;;;3.45;1.40;;;;;;;18.13;42.29;99826.94;4478514;31;35199;-66
2023/06/04 02:27:53;;;;;;;2.20;1.30;;;;;;;18.08;42.21;99829.31;4474390;31;32071;-68
2023/06/04 02:30:20;;;;;;;2.50;1.23;;;;;;;18.06;42.33;99828.59;4480300;31;33235;-67
2023/06/04 02:32:50;;;;;;;1.55;0.82;;;;;;;17.90;42.71;99827.47;4476805;31;34267;-66
2023/06/04 02:35:22;;;;;;;2.60;1.50;;;;;;;17.96;42.60;99826.00;4481191;32;34683;-67
2023/06/04 02:37:50;;;;;;;2.75;1.10;;;;;;;18.01;42.49;99822.81;4480432;32;33711;-66
2023/06/04 02:40:18;;;;;;;2.70;1.27;;;;;;;17.89;42.69;99825.81;4477231;31;34205;-70
2023/06/04 02:42:46;;;;;;;2.90;1.65;;;;;;;17.81;42.81;99809.50;4476737;31;34777;-70
2023/06/04 02:45:14;;;;;;;2.15;1.25;;;;;;;17.87;42.78;99816.13;4474594;32;34888;-69
2023/06/04 02:47:41;;;;;;;2.87;1.17;;;;;;;17.86;42.69;99809.87;4481961;32;32545;-70
2023/06/04 02:50:09;;;;;;;3.03;1.62;;;;;;;17.81;42.77;99811.34;4483889;31;33141;-70
2023/06/04 02:52:37;;;;;;;2.05;0.98;;;;;;;17.71;43.11;99822.25;4480566;31;33819;-69
2023/06/04 02:55:06;;;;;;;1.67;1.05;;;;;;;17.77;42.88;99826.22;4483162;32;35008;-69
2023/06/04 02:57:35;;;;;;;3.85;1.08;;;;;;;17.79;42.96;99830.47;4481192;32;34431;-69
2023/06/04 03:00:12;;;;;;;0.57;0.57;;;;;;;17.76;42.93;99824.50;4475761;32;32888;-69
2023/06/04 03:02:45;;;;;;;1.37;0.80;;;;;;;17.80;42.91;99820.50;4475372;31;33879;-70
2023/06/04 03:05:17;;;;;;;4.62;1.20;;;;;;;17.85;42.44;99812.75;4482872;32;34171;-67
2023/06/04 03:07:46;;;;;;;1.05;0.80;;;;;;;17.86;42.04;99825.28;4483855;32;32954;-66
2023/06/04 03:10:15;;;;;;;3.70;1.10;;;;;;;17.82;41.26;99821.19;4483869;32;33302;-66
2023/06/04 03:12:43;;;;;;;1.23;0.95;;;;;;;17.65;42.08;99825.59;4473275;31;33927;-66
2023/06/04 03:15:11;;;;;;;1.52;0.85;;;;;;;17.63;42.80;99838.44;4481634;31;33950;-66
2023/06/04 03:17:38;;;;;;;2.30;1.23;;;;;;;17.67;43.05;99831.72;4475398;32;32320;-68
2023/06/04 03:20:07;;;;;;;2.00;1.23;;;;;;;17.67;42.91;99826.28;4484306;32;33035;-68
2023/06/04 03:22:35;;;;;;;2.35;1.30;;;;;;;17.67;42.70;99824.44;4476855;31;33219;-66
2023/06/04 03:25:04;;;;;;;2.12;0.75;;;;;;;17.58;41.99;99822.66;4483622;32;34083;-68
2023/06/04 03:27:33;;;;;;;10.65;0.88;;;;;;;17.68;42.38;99825.28;4483529;32;32458;-67
2023/06/04 03:30:03;;;;;;;1.80;0.95;;;;;;;17.53;42.83;99829.56;4475048;32;34400;-67
2023/06/04 03:32:33;;;;;;;4.07;1.15;;;;;;;17.65;42.87;99828.28;4480710;31;32694;-67
2023/06/04 03:35:01;;;;;;;1.87;1.10;;;;;;;17.74;43.04;99832.75;4483159;31;34938;-68
2023/06/04 03:37:29;;;;;;;2.05;1.35;;;;;;;17.75;43.09;99839.88;4484121;32;34031;-67
2023/06/04 03:39:56;;;;;;;1.75;1.02;;;;;;;17.76;44.21;99838.88;4482208;32;33235;-67
2023/06/04 03:42:24;;;;;;;3.08;1.75;;;;;;;17.91;44.19;99840.03;4480484;31;33003;-67
2023/06/04 03:44:52;;;;;;;1.25;0.85;;;;;;;17.87;44.23;99841.34;4481731;32;33678;-67
2023/06/04 03:47:19;;;;;;;1.55;0.88;;;;;;;17.97;43.64;99837.69;4483175;32;32430;-69
2023/06/04 03:49:47;;;;;;;1.62;0.88;;;;;;;18.10;43.70;99835.38;4483524;32;33316;-66
2023/06/04 03:52:15;;;;;;;1.00;0.77;;;;;;;18.14;43.79;99840.34;4479083;31;34645;-66
2023/06/04 03:54:42;;;;;;;4.32;1.52;;;;;;;18.09;43.94;99849.94;4482471;32;33515;-66
2023/06/04 03:57:10;;;;;;;0.80;0.65;;;;;;;18.16;43.54;99851.84;4482106;32;33601;-66
2023/06/04 03:59:38;;;;;;;1.90;0.85;;;;;;;18.25;43.88;99849.19;4482785;32;34278;-66
2023/06/04 04:02:06;;;;;;;3.40;1.00;;;;;;;18.25;44.74;99854.59;4481185;31;34934;-66
2023/06/04 04:04:35;;;;;;;3.33;0.85;;;;;;;18.26;45.20;99854.44;4472779;31;33899;-65
2023/06/04 04:07:02;;;;;;;1.40;0.98;;;;;;;18.24;45.14;99861.88;4480543;32;35156;-66
2023/06/04 04:09:30;;;;;;;1.60;0.80;;;;;;;18.35;44.23;99867.00;4473577;32;32890;-66
2023/06/04 04:11:58;;;;;;;2.20;1.10;;;;;;;18.34;43.48;99862.63;4483183;31;33931;-66
2023/06/04 04:14:26;;;;;;;2.55;1.33;;;;;;;18.29;43.86;99864.09;4474596;31;33854;-66
2023/06/04 04:16:53;;;;;;;2.95;0.90;;;;;;;18.37;43.67;99858.75;4481321;32;33629;-66
2023/06/04 04:19:22;;;;;;;4.12;1.17;;;;;;;18.45;43.78;99857.91;4482992;32;32245;-66
2023/06/04 04:21:49;;;;;;;1.87;1.20;;;;;;;18.52;43.40;99858.94;4481861;31;35021;-65
2023/06/04 04:24:25;;;;;;;1.08;0.70;;;;;;;18.59;42.76;99854.59;4484548;32;33913;-69
2023/06/04 04:26:53;;;;;;;2.10;1.05;;;;;;;18.69;42.99;99859.88;4485153;32;34941;-69
2023/06/04 04:29:24;;;;;;;0.77;0.60;;;;;;;18.85;43.91;99859.97;4480358;32;31925;-67
2023/06/04 04:31:52;;;;;;;1.55;0.73;;;;;;;19.03;44.23;99863.37;4477371;31;33641;-67
2023/06/04 04:34:20;;;;;;;2.55;1.37;;;;;;;19.18;43.89;99862.75;4479605;31;34035;-67
2023/06/04 04:36:54;;;;;;;6.95;1.70;;;;;;;19.33;43.04;99873.81;4484844;32;35056;-69
2023/06/04 04:39:23;;;;;;;1.45;1.00;;;;;;;19.47;41.24;99873.97;4482426;32;34460;-67
2023/06/04 04:41:52;;;;;;;3.72;1.25;;;;;;;19.62;41.46;99876.88;4483212;31;34737;-67
2023/06/04 04:44:19;;;;;;;7.60;1.50;;;;;;;19.69;41.61;99877.91;4484612;32;33050;-67
2023/06/04 04:46:48;;;;;;;2.15;0.75;;;;;;;19.75;40.28;99871.78;4482547;31;33683;-67
2023/06/04 04:49:16;;;;;;;2.58;1.35;;;;;;;19.71;38.94;99875.88;4484214;32;34084;-67
2023/06/04 04:51:44;;;;;;;2.20;1.25;;;;;;;19.83;38.94;99870.09;4478944;31;33524;-66
2023/06/04 04:54:12;;;;;;;7.50;1.05;;;;;;;19.84;38.31;99872.66;4484683;32;33934;-71
2023/06/04 04:56:40;;;;;;;3.55;1.80;;;;;;;19.86;38.09;99872.47;4485496;32;33454;-69
2023/06/04 04:59:08;;;;;;;2.50;1.23;;;;;;;19.87;38.84;99876.88;4481198;31;33428;-67
2023/06/04 05:01:36;;;;;;;2.08;1.15;;;;;;;19.99;39.03;99873.63;4475808;31;33811;-68
2023/06/04 05:04:04;;;;;;;3.40;1.42;;;;;;;19.94;38.56;99878.75;4482162;31;32428;-68
2023/06/04 05:06:36;;;;;;;1.20;0.85;;;;;;;19.85;37.85;99870.78;4478521;31;33850;-68
2023/06/04 05:09:04;;;;;;;2.55;1.35;;;;;;;20.00;38.63;99878.06;4483807;32;34097;-68
2023/06/04 05:11:32;;;;;;;6.72;1.87;;;;;;;20.10;38.06;99875.16;4483664;31;33814;-68
2023/06/04 05:13:59;;;;;;;2.42;0.93;;;;;;;20.14;38.33;99873.78;4483004;31;32887;-69
2023/06/04 05:16:27;;;;;;;7.43;2.20;;;;;;;20.13;38.17;99882.13;4481724;31;34534;-68
2023/06/04 05:18:56;;;;;;;2.60;1.25;;;;;;;20.07;37.57;99883.66;4482792;32;33093;-68
2023/06/04 05:21:25;;;;;;;1.60;1.27;;;;;;;20.19;36.92;99887.69;4483773;32;33740;-69
2023/06/04 05:23:52;;;;;;;1.60;1.25;;;;;;;20.15;36.88;99894.47;4483794;31;33559;-66
2023/06/04 05:26:27;;;;;;;1.67;0.88;;;;;;;20.24;37.23;99901.59;4480985;31;33837;-68
2023/06/04 05:28:56;;;;;;;1.45;0.77;;;;;;;20.40;37.09;99894.44;4484995;32;31762;-67
2023/06/04 05:31:29;;;;;;;2.42;1.27;;;;;;;20.25;36.58;99891.56;4481373;31;33651;-67
2023/06/04 05:33:57;;;;;;;3.35;0.85;;;;;;;20.30;36.47;99900.06;4481866;32;32563;-67
2023/06/04 05:36:26;;;;;;;3.10;1.65;;;;;;;20.17;37.43;99895.16;4481741;31;34959;-68
2023/06/04 05:38:59;;;;;;;1.35;0.75;;;;;;;20.10;37.36;99899.59;4484674;32;34627;-70
2023/06/04 05:41:28;;;;;;;5.50;1.23;;;;;;;19.83;37.42;99902.69;4479207;32;32784;-71
2023/06/04 05:43:56;;;;;;;1.50;0.90;;;;;;;19.78;37.36;99904.03;4482175;32;35270;-69
2023/06/04 05:46:24;;;;;;;2.58;0.82;;;;;;;19.80;37.23;99900.31;4478631;31;34861;-73
2023/06/04 05:48:53;;;;;;;1.70;0.80;;;;;;;19.78;37.06;99898.62;4475436;32;33486;-70
2023/06/04 05:51:21;;;;;;;1.48;0.93;;;;;;;19.99;36.89;99899.94;4481229;32;34870;-70
2023/06/04 05:53:49;;;;;;;3.83;1.00;;;;;;;20.21;36.06;99891.06;4482498;32;35013;-71
2023/06/04 05:56:17;;;;;;;1.35;1.00;;;;;;;19.81;36.27;99894.72;4481598;31;34853;-72
2023/06/04 05:58:51;;;;;;;2.70;1.80;;;;;;;19.81;36.65;99899.28;4482135;31;33313;-69
2023/06/04 06:01:19;;;;;;;3.62;1.67;;;;;;;19.83;37.01;99897.25;4475971;31;33728;-70
2023/06/04 06:03:47;;;;;;;1.92;1.12;;;;;;;19.78;36.55;99895.91;4482891;32;33856;-71
2023/06/04 06:06:15;;;;;;;4.45;1.85;;;;;;;19.64;37.72;99888.41;4484288;32;33337;-69
2023/06/04 06:08:43;;;;;;;3.40;0.77;;;;;;;19.64;37.04;99888.41;4484585;31;32666;-71
2023/06/04 06:11:11;;;;;;;0.95;0.60;;;;;;;19.58;35.92;99896.34;4483060;31;33723;-69
2023/06/04 06:13:39;;;;;;;3.95;1.25;;;;;;;19.67;37.42;99908.94;4481101;32;34138;-71
2023/06/04 06:16:07;;;;;;;4.35;2.10;;;;;;;19.97;37.65;99915.59;4483529;32;32425;-69
2023/06/04 06:18:35;;;;;;;4.53;2.60;;;;;;;20.10;38.64;99917.78;4482301;31;31874;-68
2023/06/04 06:21:03;;;;;;;6.20;2.47;;;;;;;20.25;35.85;99919.59;4475817;32;33883;-67
2023/06/04 06:23:30;;;;;;;2.17;1.27;;;;;;;20.52;35.76;99920.25;4481487;32;34997;-69
2023/06/04 06:26:01;;;;;;;5.10;2.28;;;;;;;20.64;35.77;99918.00;4484652;32;33284;-69
2023/06/04 06:28:31;;;;;;;3.67;1.48;;;;;;;20.79;35.74;99916.22;4481121;31;33565;-68
2023/06/04 06:30:59;;;;;;;5.50;1.08;;;;;;;20.78;33.83;99921.88;4478038;31;34684;-68
2023/06/04 06:33:26;;;;;;;3.12;1.75;;;;;;;20.86;34.92;99925.37;4480876;32;32550;-69
2023/06/04 06:35:54;;;;;;;2.65;1.00;;;;;;;21.04;33.60;99921.56;4482860;32;33461;-67
2023/06/04 06:38:21;;;;;;;2.00;0.90;;;;;;;20.90;32.93;99925.91;4483072;31;32287;-67
2023/06/04 06:40:49;;;;;;;5.15;1.62;;;;;;;20.60;33.87;99924.81;4480206;32;35121;-67
2023/06/04 06:43:16;;;;;;;1.70;0.93;;;;;;;20.63;34.17;99922.59;4484124;32;33815;-69
2023/06/04 06:45:44;;;;;;;1.45;0.82;;;;;;;20.97;34.41;99937.75;4481104;32;34196;-69
2023/06/04 06:48:11;;;;;;;3.58;1.40;;;;;;;21.01;33.58;99930.94;4480159;31;33910;-70
2023/06/04 06:50:39;;;;;;;3.08;1.35;;;;;;;20.83;33.49;99939.34;4479695;31;34729;-68
2023/06/04 06:53:07;;;;;;;2.20;1.10;;;;;;;21.13;33.29;99939.56;4482977;32;33759;-69
2023/06/04 06:55:34;;;;;;;1.65;0.82;;;;;;;21.11;32.93;99941.59;4484371;32;35126;-68
2023/06/04 06:58:02;;;;;;;2.10;1.05;;;;;;;21.27;32.16;99943.38;4481116;31;33281;-69
2023/06/04 07:00:30;;;;;;;6.18;1.80;;;;;;;21.51;32.49;99937.81;4476197;31;33493;-68
2023/06/04 07:02:57;;;;;;;3.08;1.25;;;;;;;21.63;32.84;99952.69;4480522;31;34012;-70
2023/06/04 07:05:25;;;;;;;4.30;1.95;;;;;;;21.66;32.64;99954.22;4481056;32;34761;-68
2023/06/04 07:07:54;;;;;;;1.75;1.02;;;;;;;21.34;30.85;99952.53;4483822;31;33106;-69
2023/06/04 07:10:21;;;;;;;4.87;1.80;;;;;;;21.34;32.51;99944.34;4482062;32;33855;-68
2023/06/04 07:12:49;;;;;;;3.12;1.40;;;;;;;21.72;33.01;99945.31;4480243;31;34158;-68
2023/06/04 07:15:17;;;;;;;3.35;1.33;;;;;;;21.91;30.92;99943.97;4482545;32;34953;-68
2023/06/04 07:17:44;;;;;;;3.25;1.62;;;;;;;21.90;30.83;99939.56;4480530;31;33096;-68
2023/06/04 07:20:12;;;;;;;2.58;1.12;;;;;;;21.69;31.80;99933.94;4482794;32;33912;-68
2023/06/04 07:22:40;;;;;;;4.10;1.98;;;;;;;21.99;31.00;99951.22;4476454;31;33939;-67
2023/06/04 07:25:08;;;;;;;4.50;1.42;;;;;;;22.28;30.84;99947.78;4480359;31;33582;-68
2023/06/04 07:27:35;;;;;;;2.60;1.25;;;;;;;22.21;29.29;99950.38;4479701;32;33052;-68
2023/06/04 07:30:04;;;;;;;6.65;1.33;;;;;;;22.22;30.38;99953.97;4478411;32;35027;-69
2023/06/04 07:32:31;;;;;;;1.58;1.02;;;;;;;22.06;30.59;99952.22;4479755;31;33471;-67
2023/06/04 07:34:59;;;;;;;3.62;1.37;;;;;;;21.73;32.28;99948.88;4482373;32;32581;-68
2023/06/04 07:37:27;;;;;;;1.85;1.15;;;;;;;22.38;30.87;99947.50;4481876;31;32223;-69
2023/06/04 07:39:54;;;;;;;3.33;1.30;;;;;;;22.12;30.72;99945.16;4480290;32;34064;-68
2023/06/04 07:42:22;;;;;;;2.75;1.60;;;;;;;22.30;30.85;99948.41;4477219;31;34836;-68
2023/06/04 07:44:49;;;;;;;3.10;1.35;;;;;;;22.37;30.10;99952.09;4482662;32;34829;-69
2023/06/04 07:47:17;;;;;;;2.58;1.15;;;;;;;22.49;30.41;99957.94;4478424;31;33277;-69
2023/06/04 07:49:44;;;;;;;6.78;2.87;;;;;;;22.49;30.33;99958.78;4478251;32;108030;-68
2023/06/04 07:52:30;;;;;;;7.15;1.95;;;;;;;22.72;31.42;99953.25;4473709;32;33835;-68
2023/06/04 07:55:00;;;;;;;6.47;1.52;;;;;;;22.87;31.46;99960.59;4478788;31;34891;-69
2023/06/04 07:57:27;;;;;;;3.97;1.55;;;;;;;22.56;31.56;99953.44;4481968;31;35445;-68
2023/06/04 07:59:56;;;;;;;4.12;1.98;;;;;;;23.09;30.81;99956.09;4481779;32;33642;-68
2023/06/04 08:02:24;;;;;;;4.18;1.45;;;;;;;22.99;31.32;99959.12;4478702;31;32530;-69
2023/06/04 08:04:52;;;;;;;3.33;1.27;;;;;;;22.71;30.56;99956.19;4476995;31;33779;-70
2023/06/04 08:07:20;;;;;;;4.72;1.67;;;;;;;22.68;30.67;99962.00;4475633;31;34960;-67
2023/06/04 08:09:47;;;;;;;1.90;0.93;;;;;;;22.94;30.27;99965.13;4476515;32;35083;-68
2023/06/04 08:12:16;;;;;;;2.47;1.40;;;;;;;22.67;30.33;99976.69;4478412;31;34021;-69
2023/06/04 08:14:44;;;;;;;4.18;1.17;;;;;;;22.92;30.00;99967.19;4483939;32;33949;-69
2023/06/04 08:17:11;;;;;;;5.65;2.62;;;;;;;23.16;30.10;99967.94;4480687;31;32664;-69
2023/06/04 08:19:42;;;;;;;6.65;3.50;;;;;;;23.28;31.12;99969.13;4472948;32;32641;-67
2023/06/04 08:22:16;;;;;;;3.40;1.35;;;;;;;22.88;30.53;99968.56;4478924;31;32841;-67
2023/06/04 08:24:51;;;;;;;13.23;4.43;;;;;;;23.20;29.86;99970.06;4482685;32;33855;-68
2023/06/04 08:27:39;;;;;;;4.32;1.67;;;;;;;22.84;30.98;99961.81;4467630;32;31334;-69
2023/06/04 08:30:22;;;;;;;2.35;1.12;;;;;;;23.16;29.17;99962.47;4473638;32;32641;-67
2023/06/04 08:33:10;;;;;;;3.83;1.10;;;;;;;23.54;28.78;99967.75;4475199;31;32204;-68
2023/06/04 08:35:46;;;;;;;5.03;1.70;;;;;;;23.51;29.44;99970.87;4483616;32;33710;-70
2023/06/04 08:38:13;;;;;;;1.75;1.15;;;;;;;23.37;30.68;99972.59;4482522;32;33294;-69
2023/06/04 08:40:41;;;;;;;7.28;2.03;;;;;;;23.39;29.57;99967.78;4481214;32;32672;-67
2023/06/04 08:43:10;;;;;;;4.68;1.05;;;;;;;23.38;29.80;99966.94;4471460;31;33588;-68
2023/06/04 08:45:39;;;;;;;2.83;1.50;;;;;;;23.15;30.68;99966.25;4480940;32;32520;-67
2023/06/04 08:48:10;;;;;;;3.05;1.45;;;;;;;23.37;30.01;99967.12;4483232;32;32090;-69
2023/06/04 08:50:40;;;;;;;4.12;1.50;;;;;;;23.62;29.58;99971.19;4478543;31;33750;-67
2023/06/04 08:53:08;;;;;;;4.18;1.50;;;;;;;23.50;30.11;99970.03;4482231;31;34208;-67
2023/06/04 08:55:36;;;;;;;2.50;1.40;;;;;;;23.62;31.06;99968.44;4479080;32;34206;-67
2023/06/04 08:58:05;;;;;;;3.72;2.05;;;;;;;23.36;31.74;99971.75;4480342;31;33322;-67
2023/06/04 09:00:33;;;;;;;2.78;1.45;;;;;;;23.08;32.00;99973.47;4478543;31;32158;-69
2023/06/04 09:03:03;;;;;;;3.20;1.52;;;;;;;22.85;32.24;99974.41;4484229;32;32376;-67
2023/06/04 09:05:31;;;;;;;3.92;1.73;;;;;;;23.21;31.77;99970.91;4477987;31;33538;-70
2023/06/04 09:08:00;;;;;;;4.20;1.70;;;;;;;23.32;31.77;99966.88;4480209;31;32889;-67
2023/06/04 09:10:29;;;;;;;4.00;1.35;;;;;;;22.88;31.73;99967.72;4468636;31;33853;-66
2023/06/04 09:12:57;;;;;;;3.03;1.25;;;;;;;22.95;32.77;99965.97;4475628;32;34141;-68
2023/06/04 09:15:25;;;;;;;1.95;1.10;;;;;;;23.19;32.68;99973.84;4474632;32;31373;-69
2023/06/04 09:17:53;;;;;;;4.93;1.80;;;;;;;23.36;32.50;99960.81;4476397;32;30947;-69
2023/06/04 09:20:22;;;;;;;2.60;1.42;;;;;;;23.27;32.23;99972.88;4476379;31;33922;-69
2023/06/04 09:22:50;;;;;;;4.15;1.42;;;;;;;23.28;32.50;99963.69;4476204;31;34812;-69
2023/06/04 09:25:22;;;;;;;6.22;1.45;;;;;;;23.48;32.52;99962.00;4476869;32;34536;-69
2023/06/04 09:27:51;;;;;;;3.53;1.65;;;;;;;23.20;32.12;99971.97;4480347;31;33112;-70
2023/06/04 09:30:19;;;;;;;5.60;1.83;;;;;;;23.34;31.48;99973.84;4481001;31;33769;-69
2023/06/04 09:32:46;;;;;;;3.47;1.50;;;;;;;23.58;32.47;99978.09;4479375;32;34000;-67
2023/06/04 09:35:18;;;;;;;6.85;1.90;;;;;;;23.53;33.12;99969.63;4479365;31;32388;-67
2023/06/04 09:37:54;;;;;;;3.30;1.23;;;;;;;23.65;32.42;99967.22;4483819;31;32935;-69
2023/06/04 09:40:22;;;;;;;4.55;1.62;;;;;;;23.57;32.60;99967.38;4483594;31;33517;-69
2023/06/04 09:42:54;;;;;;;7.28;1.95;;;;;;;23.52;33.23;99972.56;4476693;31;33887;-68
2023/06/04 09:45:41;;;;;;;7.60;1.90;;;;;;;23.44;32.95;99971.63;4479778;32;33511;-70
2023/06/04 09:48:08;;;;;;;;;;;;;;;23.58;33.10;99978.09;4479480;31;31718;-68
2023/06/04 09:50:38;;;;;;;2.55;1.50;;;;;;;23.42;34.08;99976.44;4477326;31;33634;-70
2023/06/04 09:53:17;;;;;;;3.97;1.67;;;;;;;23.34;34.60;99983.88;4469777;32;34110;-69
2023/06/04 09:55:56;;;;;;;5.28;1.73;;;;;;;23.27;34.45;99980.25;4476958;31;33656;-67
2023/06/04 09:58:25;;;;;;;4.30;1.75;;;;;;;23.32;35.00;99983.25;4482710;32;34331;-69
2023/06/04 10:00:56;;;;;;;2.22;1.02;;;;;;;23.24;34.25;99986.91;4482384;31;34610;-68
2023/06/04 10:03:25;;;;;;;3.45;1.90;;;;;;;23.41;34.20;99977.47;4481900;31;33191;-67
2023/06/04 10:05:54;;;;;;;5.45;1.62;;;;;;;23.08;35.51;99985.28;4481170;31;33851;-69
2023/06/04 10:08:23;;;;;;;4.10;1.92;;;;;;;23.40;34.77;99980.38;4483886;32;34503;-68
2023/06/04 10:10:54;;;;;;;3.78;1.48;;;;;;;23.15;34.40;99993.56;4481626;31;32549;-68
2023/06/04 10:13:25;;;;;;;5.03;1.73;;;;;;;23.28;33.76;99993.72;4487148;31;33776;-69
2023/06/04 10:15:54;;;;;;;3.08;1.62;;;;;;;23.30;33.81;99980.69;4483656;32;34807;-67
2023/06/04 10:18:21;;;;;;;5.12;1.67;;;;;;;23.42;34.21;99981.06;4477839;32;34463;-67
2023/06/04 10:20:49;;;;;;;4.97;1.95;;;;;;;23.29;35.33;99981.75;4469431;31;35096;-67
2023/06/04 10:23:18;;;;;;;5.50;1.83;;;;;;;23.45;34.46;99977.94;4475791;32;34978;-71
2023/06/04 10:25:48;;;;;;;5.50;1.55;;;;;;;23.38;34.79;99980.59;4480190;32;33679;-75
2023/06/04 10:28:19;;;;;;;3.53;1.48;;;;;;;23.54;34.82;99984.16;4477939;31;33361;-71
2023/06/04 10:30:50;;;;;;;2.70;1.27;;;;;;;23.64;34.70;99976.47;4479742;31;34755;-71
2023/06/04 10:33:24;;;;;;;7.68;2.47;;;;;;;23.69;34.94;99977.63;4482135;32;34314;-68
2023/06/04 10:35:54;;;;;;;3.55;1.65;;;;;;;23.78;34.76;99978.31;4477926;32;33782;-71
2023/06/04 10:38:22;;;;;;;7.35;2.05;;;;;;;23.87;34.92;99977.16;4480632;32;33117;-70
2023/06/04 10:40:50;;;;;;;4.90;1.65;;;;;;;23.93;35.37;99984.56;4480875;31;34467;-70
2023/06/04 10:43:18;;;;;;;3.47;1.33;;;;;;;24.01;34.91;99980.84;4483863;32;32687;-70
2023/06/04 10:45:45;;;;;;;3.80;1.50;;;;;;;24.01;33.15;99978.13;4470050;31;32712;-71
2023/06/04 10:48:14;;;;;;;5.82;2.22;;;;;;;24.02;32.79;99976.25;4482341;31;33442;-69
2023/06/04 10:50:52;;;;;;;6.25;1.52;;;;;;;24.07;33.56;99973.75;4482496;32;33654;-70
2023/06/04 10:53:23;;;;;;;4.57;1.98;;;;;;;24.15;33.55;99979.09;4482854;32;34003;-69
2023/06/04 10:55:51;;;;;;;1.50;1.15;;;;;;;24.17;33.24;99968.78;4481762;32;32619;-69
2023/06/04 10:58:20;;;;;;;4.68;1.90;;;;;;;24.15;32.37;99971.75;4478704;31;32383;-71
2023/06/04 11:00:49;;;;;;;4.07;1.62;;;;;;;24.19;32.13;99977.66;4482217;31;34708;-70
2023/06/04 11:03:17;;;;;;;3.90;1.90;;;;;;;24.10;31.35;99978.84;4481200;32;34265;-71
2023/06/04 11:05:47;;;;;;;4.40;1.60;;;;;;;24.18;31.99;99981.44;4481226;32;34750;-70
2023/06/04 11:08:15;;;;;;;3.20;1.12;;;;;;;24.09;32.73;99979.88;4482148;32;33608;-69
2023/06/04 11:10:46;;;;;;;3.62;1.25;;;;;;;24.22;32.28;99973.69;4471050;31;33887;-70
2023/06/04 11:13:14;;;;;;;3.60;1.48;;;;;;;24.25;31.77;99981.50;4480116;31;33805;-69
2023/06/04 11:15:43;;;;;;;3.95;1.83;;;;;;;24.30;32.19;99973.53;4471058;31;34643;-70
2023/06/04 11:18:15;;;;;;;2.85;1.08;;;;;;;24.27;31.90;99969.31;4473617;31;33158;-70
2023/06/04 11:20:45;;;;;;;2.35;1.37;;;;;;;24.26;31.82;99974.97;4480913;31;33596;-69
2023/06/04 11:23:13;;;;;;;3.30;1.05;;;;;;;24.21;32.49;99974.75;4483763;32;34002;-73
2023/06/04 11:25:43;;;;;;;6.03;1.52;;;;;;;24.27;32.85;99968.44;4478116;31;33846;-72
2023/06/04 11:28:18;;;;;;;4.40;1.30;;;;;;;24.06;33.03;99969.34;4479700;31;33399;-71
2023/06/04 11:30:59;;;;;;;3.22;1.25;;;;;;;24.21;32.63;99972.84;4481929;32;32676;-71
2023/06/04 11:33:26;;;;;;;3.03;1.23;;;;;;;24.31;32.83;99969.75;4479919;31;35340;-70
2023/06/04 11:35:54;;;;;;;4.85;1.80;;;;;;;24.23;32.33;99962.53;4472049;31;32782;-71
2023/06/04 11:38:22;;;;;;;1.92;1.23;;;;;;;24.29;31.38;99967.22;4482803;31;33083;-74
2023/06/04 11:41:00;;;;;;;3.25;0.98;;;;;;;24.32;31.67;99965.97;4483466;32;32803;-70
2023/06/04 11:43:28;;;;;;;2.85;1.25;;;;;;;24.20;32.92;99962.94;4480331;31;33652;-73